Aviation Digital Data Service (ADDS)

Output produced by TAFs form (0227 UTC 02 August 2014)
found at http://aviationweather.gov/adds/tafs/
 
KPUB 012320Z 0200/0224 12008KT P6SM VCSH SCT050 BKN100 
     FM020300 VRB06KT P6SM SCT050 BKN100 
     FM021800 11008KT P6SM SCT150